• Join FlightAware (Why Join?)
  • Login
  • US Flag 
01:43AM EDT


 

Airport Tracker/Info


-or-


 

Live Flight TrackerFlight Track Log ✈ N612TX ✈ 29-Jul-2013 ✈ KHVC - KSUE

Flight Track Log - Related Links

Times and Time Zones

All times are in EDT time to prevent confusion due to time zone crossing. See the N612TX flight status page for this flight to view local times or setup timezone preferences in your user account.

Time Position Orientation Groundspeed Altitude Reporting Facility
EDT Latitude Longitude Course Direction KTS MPH feet Rate Location/Type
03:15PM 36.9847 -87.5008 North 149 171 7,700  Level Indianapolis Center
03:16PM 37.0303 -87.4994 North 161 185 9,300 1,680 Climbing Indianapolis Center
03:17PM 37.0839 -87.5006 359° North 166 191 11,200 1,560 Climbing Indianapolis Center
03:19PM 37.1317 -87.4989 North 170 196 12,600 1,320 Climbing Indianapolis Center
03:20PM 37.1570 -87.4500 North  Level FlightAware Approximate
03:20PM 37.1814 -87.4986 360° North 175 201 14,000  Level Indianapolis Center
03:21PM 37.2183 -87.4500 North  Level FlightAware Approximate
03:21PM 37.2325 -87.4986 360° North 181 208 15,200  Level Indianapolis Center
03:22PM 37.2853 -87.4975 North 186 214 16,400 1,020 Climbing Indianapolis Center
03:23PM 37.3394 -87.4967 North 191 220 17,400 840 Climbing Indianapolis Center
03:24PM 37.3928 -87.4975 359° North 190 219 18,200 780 Climbing Indianapolis Center
03:25PM 37.4458 -87.4961 North 188 216 19,100 960 Climbing Indianapolis Center
03:26PM 37.5092 -87.4958 360° North 192 221 20,300 960 Climbing Indianapolis Center
03:27PM 37.5625 -87.4958 360° North 191 220 21,100 780 Climbing Indianapolis Center
03:28PM 37.6169 -87.4942 North 193 222 22,000 780 Climbing Indianapolis Center
03:29PM 37.6703 -87.4964 358° North 190 219 22,800 480 Climbing Indianapolis Center
03:30PM 37.7267 -87.4933 North 200 230 23,000 60 Climbing Indianapolis Center
03:31PM 37.7972 -87.4933 360° North 226 260 23,000  Level Indianapolis Center
03:32PM 37.8633 -87.4933 360° North 236 272 23,000  Level Indianapolis Center
03:33PM 37.9314 -87.4917 North 241 277 23,000  Level Indianapolis Center
03:34PM 37.9997 -87.4925 359° North 243 280 23,000  Level Indianapolis Center
03:35PM 38.0692 -87.4908 North 247 284 23,000  Level Indianapolis Center
03:36PM 38.1375 -87.4908 360° North 245 282 23,000  Level Indianapolis Center
03:37PM 38.2069 -87.4908 360° North 246 283 23,000  Level Indianapolis Center
03:38PM 38.2769 -87.4886 North 248 285 23,000  Level Indianapolis Center
03:39PM 38.3603 -87.4892 360° North 247 284 23,000  Level Indianapolis Center
03:40PM 38.4297 -87.4872 North 247 284 23,000  Level Indianapolis Center
03:41PM 38.5000 -87.4875 360° North 248 285 23,000  Level Indianapolis Center
03:42PM 38.5694 -87.4869 360° North 248 285 23,000  Level Indianapolis Center
03:43PM 38.6389 -87.4856 North 248 285 23,000  Level Indianapolis Center
03:44PM 38.7075 -87.4847 North 244 281 23,000  Level Indianapolis Center
03:45PM 38.7772 -87.4833 North 248 285 23,000  Level Indianapolis Center
03:46PM 38.8461 -87.4839 360° North 245 282 23,000  Level Indianapolis Center
03:47PM 38.9156 -87.4825 North 247 284 23,000  Level Indianapolis Center
03:48PM 38.9975 -87.4817 360° North 244 281 23,000  Level Indianapolis Center
03:50PM 39.0664 -87.4803 North 246 283 23,000  Level Indianapolis Center
03:51PM 39.1264 -87.4797 360° North 244 281 23,000  Level Indianapolis Center
03:52PM 39.2086 -87.4803 360° North 246 283 23,000  Level Indianapolis Center
03:53PM 39.2747 -87.4803 360° North 240 276 23,000  Level Indianapolis Center
03:54PM 39.3419 -87.4794 North 241 277 23,000  Level Indianapolis Center
03:55PM 39.4081 -87.4778 North 239 275 23,000  Level Indianapolis Center
03:56PM 39.4750 -87.4781 360° North 240 276 23,000  Level Indianapolis Center
03:57PM 39.5419 -87.4761 North 240 276 23,000  Level Indianapolis Center
03:58PM 39.6239 -87.4761 360° North 244 281 23,000  Level Indianapolis Center
03:59PM 39.6900 -87.4761 360° North 240 276 23,000  Level Indianapolis Center
04:00PM 39.7567 -87.4744 North 239 275 23,000  Level Indianapolis Center
04:01PM 39.8228 -87.4747 360° North 238 274 23,000  Level Indianapolis Center
04:02PM 39.8892 -87.4744 360° North 239 275 23,000  Level Indianapolis Center
04:03PM 39.9556 -87.4719 North 239 275 23,000  Level Indianapolis Center
04:04PM 40.0344 -87.4725 360° North 236 272 23,000  Level Indianapolis Center
04:05PM 40.1017 -87.4717 North 240 276 23,000  Level Indianapolis Center
04:06PM 40.1686 -87.4711 360° North 241 277 23,000  Level Indianapolis Center
04:07PM 40.2353 -87.4703 North 239 275 23,000  Level Indianapolis Center
04:08PM 40.3008 -87.4697 360° North 239 275 23,000  Level Indianapolis Center
04:09PM 40.3667 -87.4686 North 236 272 23,000  Level Indianapolis Center
04:10PM 40.4458 -87.4689 360° North 238 274 23,000  Level Indianapolis Center
04:11PM 40.5128 -87.4686 360° North 241 277 23,000  Level Indianapolis Center
04:12PM 40.5792 -87.4753 356° North 241 277 23,000  Level Indianapolis Center
04:13PM 40.6411 -87.5031 341° North 236 272 23,000  Level Indianapolis Center
04:14PM 40.7047 -87.5275 344° North 237 273 23,000  Level Indianapolis Center
04:15PM 40.7797 -87.5572 343° North 236 272 23,000  Level Indianapolis Center
04:16PM 40.8431 -87.5806 344° North 237 273 23,000  Level Indianapolis Center
04:17PM 40.9050 -87.6047 344° North 234 269 23,000  Level Indianapolis Center
04:18PM 40.9706 -87.6064 359° North 235 270 23,000  Level Indianapolis Center
04:20PM 41.0697 -87.6003 North 240 276 23,000  Level Chicago Center
04:21PM 41.1372 -87.5969 North 241 277 23,000  Level Chicago Center
04:22PM 41.2036 -87.5933 North 240 276 23,000  Level Chicago Center
04:23PM 41.2814 -87.5917 North 236 272 23,000  Level Chicago Center
04:24PM 41.3486 -87.5889 North 238 274 23,000  Level Chicago Center
04:25PM 41.4147 -87.5853 North 239 275 23,000  Level Chicago Center
04:26PM 41.4814 -87.5817 North 240 276 23,000  Level Chicago Center
04:27PM 41.5478 -87.5794 North 239 275 23,000  Level Chicago Center
04:28PM 41.6283 -87.5758 North 241 277 23,000  Level Chicago Center
04:29PM 41.6950 -87.5731 North 240 276 23,000  Level Chicago Center
04:30PM 41.7611 -87.5692 North 238 274 23,000  Level Chicago Center
04:31PM 41.8258 -87.5642 North 241 277 23,000  Level Chicago Center
04:32PM 41.9031 -87.5631 North 237 273 23,000  Level Chicago Center
04:33PM 41.9694 -87.5603 North 239 275 23,000  Level Chicago Center
04:34PM 42.0361 -87.5561 North 238 274 23,000  Level Chicago Center
04:35PM 42.1033 -87.5539 North 241 277 23,000  Level Chicago Center
04:37PM 42.1694 -87.5508 North 238 274 23,000  Level Chicago Center
04:38PM 42.2475 -87.5489 North 240 276 23,000  Level Chicago Center
04:39PM 42.3144 -87.5444 North 241 277 23,000  Level Chicago Center
04:40PM 42.3797 -87.5417 North 236 272 23,000  Level Chicago Center
04:41PM 42.4456 -87.5394 North 237 273 23,000  Level Chicago Center
04:42PM 42.5125 -87.5358 North 239 275 23,000  Level Chicago Center
04:43PM 42.5906 -87.5331 North 241 277 23,000  Level Chicago Center
04:44PM 42.6553 -87.5294 North 235 270 23,000  Level Chicago Center
04:45PM 42.7225 -87.5272 North 238 274 23,000  Level Chicago Center
04:46PM 42.7886 -87.5228 North 239 275 23,000  Level Chicago Center
04:47PM 42.8542 -87.5203 North 238 274 23,000  Level Chicago Center
04:48PM 42.9311 -87.5161 North 236 272 23,000  Level Chicago Center
04:49PM 43.0000 -87.5136 North 243 280 23,000  Level Chicago Center
04:50PM 43.0675 -87.5094 North 243 280 23,000  Level Chicago Center
04:51PM 43.1347 -87.5067 North 243 280 23,000  Level Chicago Center
04:52PM 43.2019 -87.5036 North 243 280 23,000  Level Chicago Center
04:53PM 43.2800 -87.5003 North 242 278 23,000  Level Chicago Center
04:54PM 43.3481 -87.4964 North 244 281 23,000  Level Chicago Center
04:55PM 43.4158 -87.4942 North 246 283 23,000  Level Chicago Center
04:56PM 43.4828 -87.4903 North 243 280 23,000  Level Chicago Center
04:57PM 43.5503 -87.4875 North 243 280 23,000  Level Chicago Center
04:58PM 43.6292 -87.4831 North 245 282 23,000 -300 Level Chicago Center
04:59PM 43.6981 -87.4800 North 247 284 22,500 -900 Descending Chicago Center
05:00PM 43.7706 -87.4764 North 259 298 21,200 -1,380 Descending Chicago Center
05:01PM 43.8456 -87.4728 North 266 306 19,700 -1,440 Descending Chicago Center
05:02PM 43.8833 -87.4717 North 271 312 19,000 -1,440 Descending Minneapolis Center
05:03PM 43.9725 -87.4672 North 274 315 17,500 -1,500 Descending Minneapolis Center
05:04PM 44.0481 -87.4636 North 272 313 15,900 -1,500 Descending Minneapolis Center
05:05PM 44.1239 -87.4600 North 274 315 14,400 -1,500 Descending Minneapolis Center
05:06PM 44.1981 -87.4553 North 268 308 12,900 -1,320 Descending Minneapolis Center
05:07PM 44.2733 -87.4528 North 270 311 11,500 -1,440 Descending Minneapolis Center
05:08PM 44.3725 -87.4497 North 268 308 9,700 -1,500 Descending Minneapolis Center
05:09PM 44.4458 -87.4478 North 265 305 8,400 -1,320 Descending Minneapolis Center
05:10PM 44.5236 -87.4444 North 257 296 7,000 -1,320 Descending Minneapolis Center
05:11PM 44.5925 -87.4403 North 250 288 5,700 -1,080 Descending Minneapolis Center
05:12PM 44.6575 -87.4328 North 241 277 4,800 -900 Descending Minneapolis Center
05:15PM 44.7736 -87.4167 North  Level FlightAware Approximate
05:22PM 44.8333 -87.4167 North  Level FlightAware Approximate
05:23PM 44.8437 -87.4215 North  Level Estimated